sensor_id;sensor_type;location;lat;lon;timestamp;P1;durP1;ratioP1;P2;durP2;ratioP2
24008;SDS011;12217;50.792;4.372;2023-02-28T00:00:06;12.10;;;8.65;;
24008;SDS011;12217;50.792;4.372;2023-02-28T00:02:42;9.98;;;8.30;;
24008;SDS011;12217;50.792;4.372;2023-02-28T00:05:09;12.75;;;8.52;;
24008;SDS011;12217;50.792;4.372;2023-02-28T00:07:36;10.60;;;8.45;;
24008;SDS011;12217;50.792;4.372;2023-02-28T00:10:03;11.32;;;8.32;;
24008;SDS011;12217;50.792;4.372;2023-02-28T00:12:31;11.45;;;8.27;;
24008;SDS011;12217;50.792;4.372;2023-02-28T00:14:56;11.23;;;8.18;;
24008;SDS011;12217;50.792;4.372;2023-02-28T00:17:22;11.32;;;8.20;;
24008;SDS011;12217;50.792;4.372;2023-02-28T00:19:48;10.98;;;8.18;;
24008;SDS011;12217;50.792;4.372;2023-02-28T00:22:15;9.93;;;8.38;;
24008;SDS011;12217;50.792;4.372;2023-02-28T00:24:44;12.45;;;8.30;;
24008;SDS011;12217;50.792;4.372;2023-02-28T00:27:10;11.43;;;8.02;;
24008;SDS011;12217;50.792;4.372;2023-02-28T00:29:37;13.10;;;8.10;;
24008;SDS011;12217;50.792;4.372;2023-02-28T00:32:02;9.65;;;7.85;;
24008;SDS011;12217;50.792;4.372;2023-02-28T00:34:29;10.55;;;8.00;;
24008;SDS011;12217;50.792;4.372;2023-02-28T00:36:55;11.55;;;8.25;;
24008;SDS011;12217;50.792;4.372;2023-02-28T00:39:20;12.18;;;8.23;;
24008;SDS011;12217;50.792;4.372;2023-02-28T00:41:46;10.82;;;8.40;;
24008;SDS011;12217;50.792;4.372;2023-02-28T00:44:11;10.10;;;8.32;;
24008;SDS011;12217;50.792;4.372;2023-02-28T00:46:37;12.50;;;8.43;;
24008;SDS011;12217;50.792;4.372;2023-02-28T00:49:03;10.57;;;8.43;;
24008;SDS011;12217;50.792;4.372;2023-02-28T00:51:28;10.98;;;8.35;;
24008;SDS011;12217;50.792;4.372;2023-02-28T00:53:54;11.73;;;8.35;;
24008;SDS011;12217;50.792;4.372;2023-02-28T00:56:20;11.27;;;8.52;;
24008;SDS011;12217;50.792;4.372;2023-02-28T00:58:45;13.00;;;8.55;;
24008;SDS011;12217;50.792;4.372;2023-02-28T01:01:11;9.25;;;8.30;;
24008;SDS011;12217;50.792;4.372;2023-02-28T01:03:37;9.43;;;8.20;;
24008;SDS011;12217;50.792;4.372;2023-02-28T01:06:03;10.13;;;8.73;;
24008;SDS011;12217;50.792;4.372;2023-02-28T01:08:29;10.45;;;8.00;;
24008;SDS011;12217;50.792;4.372;2023-02-28T01:10:54;11.73;;;8.45;;
24008;SDS011;12217;50.792;4.372;2023-02-28T01:13:20;11.27;;;8.70;;
24008;SDS011;12217;50.792;4.372;2023-02-28T01:15:51;9.88;;;8.00;;
24008;SDS011;12217;50.792;4.372;2023-02-28T01:20:46;14.68;;;8.77;;
24008;SDS011;12217;50.792;4.372;2023-02-28T01:23:11;11.23;;;8.38;;
24008;SDS011;12217;50.792;4.372;2023-02-28T01:25:37;12.15;;;8.38;;
24008;SDS011;12217;50.792;4.372;2023-02-28T01:28:03;12.13;;;8.23;;
24008;SDS011;12217;50.792;4.372;2023-02-28T01:30:30;9.90;;;8.25;;
24008;SDS011;12217;50.792;4.372;2023-02-28T01:32:55;11.05;;;8.40;;
24008;SDS011;12217;50.792;4.372;2023-02-28T01:35:21;11.63;;;8.00;;
24008;SDS011;12217;50.792;4.372;2023-02-28T01:37:47;11.32;;;9.00;;
24008;SDS011;12217;50.792;4.372;2023-02-28T01:40:12;11.98;;;8.43;;
24008;SDS011;12217;50.792;4.372;2023-02-28T01:42:39;14.13;;;9.30;;
24008;SDS011;12217;50.792;4.372;2023-02-28T01:45:22;12.65;;;8.43;;
24008;SDS011;12217;50.792;4.372;2023-02-28T01:47:50;9.88;;;8.70;;
24008;SDS011;12217;50.792;4.372;2023-02-28T01:50:18;10.20;;;8.18;;
24008;SDS011;12217;50.792;4.372;2023-02-28T01:52:47;10.13;;;8.45;;
24008;SDS011;12217;50.792;4.372;2023-02-28T01:55:15;10.73;;;8.40;;
24008;SDS011;12217;50.792;4.372;2023-02-28T01:57:45;9.60;;;7.97;;
24008;SDS011;12217;50.792;4.372;2023-02-28T02:00:15;10.65;;;8.38;;
24008;SDS011;12217;50.792;4.372;2023-02-28T02:02:45;11.38;;;7.97;;
24008;SDS011;12217;50.792;4.372;2023-02-28T02:05:15;10.82;;;8.50;;
24008;SDS011;12217;50.792;4.372;2023-02-28T02:07:44;15.35;;;8.82;;
24008;SDS011;12217;50.792;4.372;2023-02-28T02:10:17;9.50;;;8.45;;
24008;SDS011;12217;50.792;4.372;2023-02-28T02:17:51;16.17;;;9.02;;
24008;SDS011;12217;50.792;4.372;2023-02-28T02:25:54;11.13;;;8.73;;
24008;SDS011;12217;50.792;4.372;2023-02-28T02:28:36;11.02;;;9.38;;
24008;SDS011;12217;50.792;4.372;2023-02-28T02:34:09;10.85;;;9.30;;
24008;SDS011;12217;50.792;4.372;2023-02-28T02:42:16;11.07;;;9.50;;
24008;SDS011;12217;50.792;4.372;2023-02-28T02:45:01;11.02;;;9.35;;
24008;SDS011;12217;50.792;4.372;2023-02-28T02:47:35;10.70;;;9.60;;
24008;SDS011;12217;50.792;4.372;2023-02-28T02:50:03;12.35;;;10.07;;
24008;SDS011;12217;50.792;4.372;2023-02-28T02:52:38;11.57;;;10.38;;
24008;SDS011;12217;50.792;4.372;2023-02-28T02:55:09;11.10;;;9.40;;
24008;SDS011;12217;50.792;4.372;2023-02-28T03:00:31;11.57;;;9.60;;
24008;SDS011;12217;50.792;4.372;2023-02-28T03:03:00;12.48;;;9.98;;
24008;SDS011;12217;50.792;4.372;2023-02-28T03:05:33;14.27;;;10.40;;
24008;SDS011;12217;50.792;4.372;2023-02-28T03:08:06;11.80;;;10.40;;
24008;SDS011;12217;50.792;4.372;2023-02-28T03:10:40;11.80;;;10.30;;
24008;SDS011;12217;50.792;4.372;2023-02-28T03:13:18;14.93;;;11.02;;
24008;SDS011;12217;50.792;4.372;2023-02-28T03:18:34;11.63;;;10.43;;
24008;SDS011;12217;50.792;4.372;2023-02-28T03:21:38;11.88;;;10.48;;
24008;SDS011;12217;50.792;4.372;2023-02-28T03:24:04;14.50;;;11.35;;
24008;SDS011;12217;50.792;4.372;2023-02-28T03:26:49;14.27;;;11.23;;
24008;SDS011;12217;50.792;4.372;2023-02-28T03:29:31;16.60;;;11.60;;
24008;SDS011;12217;50.792;4.372;2023-02-28T03:34:40;15.55;;;11.98;;
24008;SDS011;12217;50.792;4.372;2023-02-28T03:37:09;13.68;;;11.52;;
24008;SDS011;12217;50.792;4.372;2023-02-28T03:39:40;15.23;;;11.20;;
24008;SDS011;12217;50.792;4.372;2023-02-28T03:42:31;15.02;;;11.85;;
24008;SDS011;12217;50.792;4.372;2023-02-28T03:45:02;15.40;;;12.02;;
24008;SDS011;12217;50.792;4.372;2023-02-28T03:55:48;15.15;;;12.05;;
24008;SDS011;12217;50.792;4.372;2023-02-28T03:58:24;14.52;;;12.13;;
24008;SDS011;12217;50.792;4.372;2023-02-28T04:01:05;16.85;;;12.82;;
24008;SDS011;12217;50.792;4.372;2023-02-28T04:03:35;14.20;;;12.50;;
24008;SDS011;12217;50.792;4.372;2023-02-28T04:06:02;14.90;;;12.90;;
24008;SDS011;12217;50.792;4.372;2023-02-28T04:08:29;16.73;;;12.43;;
24008;SDS011;12217;50.792;4.372;2023-02-28T04:11:00;14.70;;;12.52;;
24008;SDS011;12217;50.792;4.372;2023-02-28T04:13:31;13.93;;;12.10;;
24008;SDS011;12217;50.792;4.372;2023-02-28T04:15:57;17.35;;;12.95;;
24008;SDS011;12217;50.792;4.372;2023-02-28T04:18:22;18.55;;;13.38;;
24008;SDS011;12217;50.792;4.372;2023-02-28T04:20:48;15.93;;;13.30;;
24008;SDS011;12217;50.792;4.372;2023-02-28T04:23:14;16.65;;;12.52;;
24008;SDS011;12217;50.792;4.372;2023-02-28T04:25:39;20.85;;;13.25;;
24008;SDS011;12217;50.792;4.372;2023-02-28T04:28:06;16.70;;;13.73;;
24008;SDS011;12217;50.792;4.372;2023-02-28T04:30:31;18.05;;;13.35;;
24008;SDS011;12217;50.792;4.372;2023-02-28T04:32:57;15.75;;;13.02;;
24008;SDS011;12217;50.792;4.372;2023-02-28T04:35:23;14.23;;;12.27;;
24008;SDS011;12217;50.792;4.372;2023-02-28T04:37:49;18.60;;;13.50;;
24008;SDS011;12217;50.792;4.372;2023-02-28T04:40:14;15.18;;;13.60;;
24008;SDS011;12217;50.792;4.372;2023-02-28T04:42:40;19.70;;;13.43;;
24008;SDS011;12217;50.792;4.372;2023-02-28T04:45:06;15.60;;;13.90;;
24008;SDS011;12217;50.792;4.372;2023-02-28T04:47:35;16.20;;;13.90;;
24008;SDS011;12217;50.792;4.372;2023-02-28T04:50:01;17.05;;;14.98;;
24008;SDS011;12217;50.792;4.372;2023-02-28T04:52:27;16.58;;;14.05;;
24008;SDS011;12217;50.792;4.372;2023-02-28T04:54:52;15.57;;;13.75;;
24008;SDS011;12217;50.792;4.372;2023-02-28T04:57:18;17.40;;;14.98;;
24008;SDS011;12217;50.792;4.372;2023-02-28T04:59:43;18.17;;;14.00;;
24008;SDS011;12217;50.792;4.372;2023-02-28T05:02:09;17.33;;;14.65;;
24008;SDS011;12217;50.792;4.372;2023-02-28T05:04:35;16.95;;;14.63;;
24008;SDS011;12217;50.792;4.372;2023-02-28T05:07:01;17.52;;;14.98;;
24008;SDS011;12217;50.792;4.372;2023-02-28T05:09:28;21.40;;;14.43;;
24008;SDS011;12217;50.792;4.372;2023-02-28T05:11:54;16.25;;;13.88;;
24008;SDS011;12217;50.792;4.372;2023-02-28T05:14:20;17.08;;;13.98;;
24008;SDS011;12217;50.792;4.372;2023-02-28T05:16:45;19.63;;;15.40;;
24008;SDS011;12217;50.792;4.372;2023-02-28T05:19:11;18.50;;;14.35;;
24008;SDS011;12217;50.792;4.372;2023-02-28T05:21:38;17.35;;;14.52;;
24008;SDS011;12217;50.792;4.372;2023-02-28T05:24:06;16.80;;;14.15;;
24008;SDS011;12217;50.792;4.372;2023-02-28T05:26:40;16.15;;;14.27;;
24008;SDS011;12217;50.792;4.372;2023-02-28T05:29:07;17.50;;;14.40;;
24008;SDS011;12217;50.792;4.372;2023-02-28T05:31:33;16.05;;;14.35;;
24008;SDS011;12217;50.792;4.372;2023-02-28T05:34:01;15.82;;;14.02;;
24008;SDS011;12217;50.792;4.372;2023-02-28T05:36:29;16.30;;;14.68;;
24008;SDS011;12217;50.792;4.372;2023-02-28T05:38:54;17.83;;;15.30;;
24008;SDS011;12217;50.792;4.372;2023-02-28T05:41:20;17.38;;;14.75;;
24008;SDS011;12217;50.792;4.372;2023-02-28T05:43:46;18.15;;;14.50;;
24008;SDS011;12217;50.792;4.372;2023-02-28T05:46:12;16.67;;;14.27;;
24008;SDS011;12217;50.792;4.372;2023-02-28T05:48:38;18.30;;;14.77;;
24008;SDS011;12217;50.792;4.372;2023-02-28T05:51:05;17.50;;;14.15;;
24008;SDS011;12217;50.792;4.372;2023-02-28T05:53:32;16.63;;;13.82;;
24008;SDS011;12217;50.792;4.372;2023-02-28T05:55:58;19.58;;;15.10;;
24008;SDS011;12217;50.792;4.372;2023-02-28T05:58:24;18.58;;;14.30;;
24008;SDS011;12217;50.792;4.372;2023-02-28T06:00:55;19.00;;;14.80;;
24008;SDS011;12217;50.792;4.372;2023-02-28T06:03:22;16.08;;;13.52;;
24008;SDS011;12217;50.792;4.372;2023-02-28T06:05:48;15.95;;;14.10;;
24008;SDS011;12217;50.792;4.372;2023-02-28T06:08:15;19.50;;;14.75;;
24008;SDS011;12217;50.792;4.372;2023-02-28T06:10:41;18.85;;;14.13;;
24008;SDS011;12217;50.792;4.372;2023-02-28T06:13:06;16.33;;;14.50;;
24008;SDS011;12217;50.792;4.372;2023-02-28T06:15:32;16.08;;;14.13;;
24008;SDS011;12217;50.792;4.372;2023-02-28T06:17:58;19.15;;;14.63;;
24008;SDS011;12217;50.792;4.372;2023-02-28T06:20:24;17.90;;;14.35;;
24008;SDS011;12217;50.792;4.372;2023-02-28T06:22:54;18.35;;;14.95;;
24008;SDS011;12217;50.792;4.372;2023-02-28T06:25:26;17.30;;;14.52;;
24008;SDS011;12217;50.792;4.372;2023-02-28T06:27:53;18.30;;;14.15;;
24008;SDS011;12217;50.792;4.372;2023-02-28T06:30:19;15.90;;;14.20;;
24008;SDS011;12217;50.792;4.372;2023-02-28T06:32:50;18.20;;;14.50;;
24008;SDS011;12217;50.792;4.372;2023-02-28T06:35:15;16.92;;;14.77;;
24008;SDS011;12217;50.792;4.372;2023-02-28T06:37:41;18.48;;;14.07;;
24008;SDS011;12217;50.792;4.372;2023-02-28T06:40:09;17.42;;;14.80;;
24008;SDS011;12217;50.792;4.372;2023-02-28T06:42:35;17.85;;;14.75;;
24008;SDS011;12217;50.792;4.372;2023-02-28T06:45:00;21.55;;;17.00;;
24008;SDS011;12217;50.792;4.372;2023-02-28T06:47:28;16.58;;;14.88;;
24008;SDS011;12217;50.792;4.372;2023-02-28T06:49:55;16.67;;;13.48;;
24008;SDS011;12217;50.792;4.372;2023-02-28T06:52:21;15.55;;;13.95;;
24008;SDS011;12217;50.792;4.372;2023-02-28T06:54:47;17.02;;;14.02;;
24008;SDS011;12217;50.792;4.372;2023-02-28T06:57:26;16.10;;;13.38;;
24008;SDS011;12217;50.792;4.372;2023-02-28T06:59:55;15.98;;;13.70;;
24008;SDS011;12217;50.792;4.372;2023-02-28T07:02:21;14.60;;;12.98;;
24008;SDS011;12217;50.792;4.372;2023-02-28T07:04:46;15.55;;;12.95;;
24008;SDS011;12217;50.792;4.372;2023-02-28T07:07:12;21.60;;;14.68;;
24008;SDS011;12217;50.792;4.372;2023-02-28T07:09:37;16.45;;;13.02;;
24008;SDS011;12217;50.792;4.372;2023-02-28T07:12:03;17.90;;;15.07;;
24008;SDS011;12217;50.792;4.372;2023-02-28T07:14:29;17.48;;;14.63;;
24008;SDS011;12217;50.792;4.372;2023-02-28T07:16:55;17.88;;;13.77;;
24008;SDS011;12217;50.792;4.372;2023-02-28T07:19:20;17.05;;;13.32;;
24008;SDS011;12217;50.792;4.372;2023-02-28T07:21:46;15.90;;;14.20;;
24008;SDS011;12217;50.792;4.372;2023-02-28T07:24:11;16.40;;;13.75;;
24008;SDS011;12217;50.792;4.372;2023-02-28T07:26:40;14.70;;;12.80;;
24008;SDS011;12217;50.792;4.372;2023-02-28T07:29:06;14.32;;;12.77;;
24008;SDS011;12217;50.792;4.372;2023-02-28T07:31:32;14.95;;;12.25;;
24008;SDS011;12217;50.792;4.372;2023-02-28T07:33:57;14.07;;;12.52;;
24008;SDS011;12217;50.792;4.372;2023-02-28T07:36:23;15.35;;;12.15;;
24008;SDS011;12217;50.792;4.372;2023-02-28T07:38:49;16.65;;;12.38;;
24008;SDS011;12217;50.792;4.372;2023-02-28T07:41:19;16.33;;;12.02;;
24008;SDS011;12217;50.792;4.372;2023-02-28T07:43:46;20.95;;;12.23;;
24008;SDS011;12217;50.792;4.372;2023-02-28T07:46:12;14.27;;;12.65;;
24008;SDS011;12217;50.792;4.372;2023-02-28T07:48:42;12.60;;;11.30;;
24008;SDS011;12217;50.792;4.372;2023-02-28T07:51:08;15.70;;;11.60;;
24008;SDS011;12217;50.792;4.372;2023-02-28T07:53:34;16.60;;;10.48;;
24008;SDS011;12217;50.792;4.372;2023-02-28T07:56:00;16.55;;;10.88;;
24008;SDS011;12217;50.792;4.372;2023-02-28T07:58:28;14.95;;;10.65;;
24008;SDS011;12217;50.792;4.372;2023-02-28T08:00:55;12.30;;;10.40;;
24008;SDS011;12217;50.792;4.372;2023-02-28T08:03:21;15.30;;;10.30;;
24008;SDS011;12217;50.792;4.372;2023-02-28T08:05:48;12.27;;;9.93;;
24008;SDS011;12217;50.792;4.372;2023-02-28T08:08:15;14.35;;;10.07;;
24008;SDS011;12217;50.792;4.372;2023-02-28T08:10:42;13.73;;;10.07;;
24008;SDS011;12217;50.792;4.372;2023-02-28T08:13:08;13.48;;;9.27;;
24008;SDS011;12217;50.792;4.372;2023-02-28T08:15:34;13.90;;;9.50;;
24008;SDS011;12217;50.792;4.372;2023-02-28T08:18:01;13.45;;;9.40;;
24008;SDS011;12217;50.792;4.372;2023-02-28T08:20:27;11.48;;;8.85;;
24008;SDS011;12217;50.792;4.372;2023-02-28T08:22:53;11.13;;;8.40;;
24008;SDS011;12217;50.792;4.372;2023-02-28T08:25:18;13.77;;;8.77;;
24008;SDS011;12217;50.792;4.372;2023-02-28T08:27:44;11.90;;;8.45;;
24008;SDS011;12217;50.792;4.372;2023-02-28T08:30:11;11.70;;;8.20;;
24008;SDS011;12217;50.792;4.372;2023-02-28T08:32:38;11.95;;;8.65;;
24008;SDS011;12217;50.792;4.372;2023-02-28T08:35:04;11.20;;;8.40;;
24008;SDS011;12217;50.792;4.372;2023-02-28T08:37:30;9.32;;;7.72;;
24008;SDS011;12217;50.792;4.372;2023-02-28T08:39:56;12.35;;;8.45;;
24008;SDS011;12217;50.792;4.372;2023-02-28T08:42:21;12.82;;;8.15;;
24008;SDS011;12217;50.792;4.372;2023-02-28T08:44:48;9.73;;;7.80;;
24008;SDS011;12217;50.792;4.372;2023-02-28T08:47:13;11.40;;;7.40;;
24008;SDS011;12217;50.792;4.372;2023-02-28T08:49:39;9.02;;;7.18;;
24008;SDS011;12217;50.792;4.372;2023-02-28T08:52:04;8.60;;;7.53;;
24008;SDS011;12217;50.792;4.372;2023-02-28T08:54:31;8.48;;;7.43;;
24008;SDS011;12217;50.792;4.372;2023-02-28T08:56:58;8.18;;;7.30;;
24008;SDS011;12217;50.792;4.372;2023-02-28T08:59:23;8.25;;;7.10;;
24008;SDS011;12217;50.792;4.372;2023-02-28T09:01:49;8.68;;;6.88;;
24008;SDS011;12217;50.792;4.372;2023-02-28T09:04:15;8.60;;;6.60;;
24008;SDS011;12217;50.792;4.372;2023-02-28T09:06:41;7.32;;;6.25;;
24008;SDS011;12217;50.792;4.372;2023-02-28T09:09:06;6.93;;;6.22;;
24008;SDS011;12217;50.792;4.372;2023-02-28T09:11:33;10.93;;;6.25;;
24008;SDS011;12217;50.792;4.372;2023-02-28T09:14:00;10.48;;;6.15;;
24008;SDS011;12217;50.792;4.372;2023-02-28T09:16:28;6.97;;;5.80;;
24008;SDS011;12217;50.792;4.372;2023-02-28T09:18:54;7.05;;;5.22;;
24008;SDS011;12217;50.792;4.372;2023-02-28T09:21:20;8.68;;;5.55;;
24008;SDS011;12217;50.792;4.372;2023-02-28T09:23:47;6.90;;;5.60;;
24008;SDS011;12217;50.792;4.372;2023-02-28T09:26:14;8.10;;;5.65;;
24008;SDS011;12217;50.792;4.372;2023-02-28T09:28:41;6.85;;;5.30;;
24008;SDS011;12217;50.792;4.372;2023-02-28T09:31:10;6.95;;;5.10;;
24008;SDS011;12217;50.792;4.372;2023-02-28T09:33:38;6.63;;;5.30;;
24008;SDS011;12217;50.792;4.372;2023-02-28T09:36:04;9.05;;;5.05;;
24008;SDS011;12217;50.792;4.372;2023-02-28T09:38:30;5.60;;;4.97;;
24008;SDS011;12217;50.792;4.372;2023-02-28T09:40:57;8.27;;;5.18;;
24008;SDS011;12217;50.792;4.372;2023-02-28T09:43:26;5.03;;;4.43;;
24008;SDS011;12217;50.792;4.372;2023-02-28T09:49:02;7.30;;;4.78;;
24008;SDS011;12217;50.792;4.372;2023-02-28T09:54:16;5.38;;;4.20;;
24008;SDS011;12217;50.792;4.372;2023-02-28T09:56:56;5.47;;;4.32;;
24008;SDS011;12217;50.792;4.372;2023-02-28T10:02:24;5.07;;;4.20;;
24008;SDS011;12217;50.792;4.372;2023-02-28T10:04:54;4.93;;;3.95;;
24008;SDS011;12217;50.792;4.372;2023-02-28T10:07:31;5.10;;;3.55;;
24008;SDS011;12217;50.792;4.372;2023-02-28T10:10:41;4.00;;;3.60;;
24008;SDS011;12217;50.792;4.372;2023-02-28T10:16:03;5.80;;;3.95;;
24008;SDS011;12217;50.792;4.372;2023-02-28T10:18:43;5.28;;;4.28;;
24008;SDS011;12217;50.792;4.372;2023-02-28T10:21:21;4.18;;;3.78;;
24008;SDS011;12217;50.792;4.372;2023-02-28T10:23:53;3.88;;;3.47;;
24008;SDS011;12217;50.792;4.372;2023-02-28T10:26:27;4.72;;;3.60;;
24008;SDS011;12217;50.792;4.372;2023-02-28T10:28:55;3.95;;;3.47;;
24008;SDS011;12217;50.792;4.372;2023-02-28T10:31:20;3.92;;;3.05;;
24008;SDS011;12217;50.792;4.372;2023-02-28T10:33:47;3.67;;;3.00;;
24008;SDS011;12217;50.792;4.372;2023-02-28T10:36:17;3.75;;;3.17;;
24008;SDS011;12217;50.792;4.372;2023-02-28T10:38:44;3.30;;;2.97;;
24008;SDS011;12217;50.792;4.372;2023-02-28T10:41:15;4.72;;;3.00;;
24008;SDS011;12217;50.792;4.372;2023-02-28T10:43:51;4.38;;;3.50;;
24008;SDS011;12217;50.792;4.372;2023-02-28T10:46:18;3.53;;;3.20;;
24008;SDS011;12217;50.792;4.372;2023-02-28T10:49:35;4.22;;;3.30;;
24008;SDS011;12217;50.792;4.372;2023-02-28T10:51:45;4.47;;;3.30;;
24008;SDS011;12217;50.792;4.372;2023-02-28T10:54:18;4.65;;;3.33;;
24008;SDS011;12217;50.792;4.372;2023-02-28T10:57:05;3.50;;;3.20;;
24008;SDS011;12217;50.792;4.372;2023-02-28T10:59:40;4.80;;;3.65;;
24008;SDS011;12217;50.792;4.372;2023-02-28T11:04:59;3.47;;;3.17;;
24008;SDS011;12217;50.792;4.372;2023-02-28T11:07:25;3.45;;;3.15;;
24008;SDS011;12217;50.792;4.372;2023-02-28T11:09:53;5.28;;;3.20;;
24008;SDS011;12217;50.792;4.372;2023-02-28T11:12:29;3.10;;;2.80;;
24008;SDS011;12217;50.792;4.372;2023-02-28T11:15:02;3.35;;;3.05;;
24008;SDS011;12217;50.792;4.372;2023-02-28T11:17:31;3.40;;;2.80;;
24008;SDS011;12217;50.792;4.372;2023-02-28T11:19:59;2.60;;;2.40;;
24008;SDS011;12217;50.792;4.372;2023-02-28T11:22:33;3.00;;;2.70;;
24008;SDS011;12217;50.792;4.372;2023-02-28T11:25:37;3.97;;;2.65;;
24008;SDS011;12217;50.792;4.372;2023-02-28T11:28:42;6.88;;;2.80;;
24008;SDS011;12217;50.792;4.372;2023-02-28T11:33:42;4.20;;;2.65;;
24008;SDS011;12217;50.792;4.372;2023-02-28T11:36:14;3.58;;;2.58;;
24008;SDS011;12217;50.792;4.372;2023-02-28T11:38:51;3.42;;;2.55;;
24008;SDS011;12217;50.792;4.372;2023-02-28T11:41:29;3.65;;;2.80;;
24008;SDS011;12217;50.792;4.372;2023-02-28T11:52:36;4.10;;;3.13;;
24008;SDS011;12217;50.792;4.372;2023-02-28T11:57:49;31.45;;;23.77;;
24008;SDS011;12217;50.792;4.372;2023-02-28T12:06:13;4.60;;;2.97;;
24008;SDS011;12217;50.792;4.372;2023-02-28T12:22:36;2.67;;;2.47;;
24008;SDS011;12217;50.792;4.372;2023-02-28T12:28:14;2.70;;;2.50;;
24008;SDS011;12217;50.792;4.372;2023-02-28T12:30:53;3.97;;;2.70;;
24008;SDS011;12217;50.792;4.372;2023-02-28T12:33:27;2.95;;;2.75;;
24008;SDS011;12217;50.792;4.372;2023-02-28T12:36:03;3.47;;;2.72;;
24008;SDS011;12217;50.792;4.372;2023-02-28T12:38:40;2.70;;;2.50;;
24008;SDS011;12217;50.792;4.372;2023-02-28T12:41:17;3.00;;;2.75;;
24008;SDS011;12217;50.792;4.372;2023-02-28T12:44:09;57.83;;;49.95;;
24008;SDS011;12217;50.792;4.372;2023-02-28T12:47:15;4.18;;;3.00;;
24008;SDS011;12217;50.792;4.372;2023-02-28T12:49:46;3.40;;;3.10;;
24008;SDS011;12217;50.792;4.372;2023-02-28T12:52:29;3.13;;;2.60;;
24008;SDS011;12217;50.792;4.372;2023-02-28T12:58:08;2.63;;;2.42;;
24008;SDS011;12217;50.792;4.372;2023-02-28T13:04:00;8.85;;;3.65;;
24008;SDS011;12217;50.792;4.372;2023-02-28T13:09:56;3.50;;;3.13;;
24008;SDS011;12217;50.792;4.372;2023-02-28T13:12:24;2.88;;;2.58;;
24008;SDS011;12217;50.792;4.372;2023-02-28T13:14:51;3.90;;;2.80;;
24008;SDS011;12217;50.792;4.372;2023-02-28T13:17:29;4.57;;;2.97;;
24008;SDS011;12217;50.792;4.372;2023-02-28T13:22:42;8.57;;;7.72;;
24008;SDS011;12217;50.792;4.372;2023-02-28T13:27:47;3.45;;;2.80;;
24008;SDS011;12217;50.792;4.372;2023-02-28T13:33:28;18.77;;;16.17;;
24008;SDS011;12217;50.792;4.372;2023-02-28T13:38:40;3.42;;;2.65;;
24008;SDS011;12217;50.792;4.372;2023-02-28T13:46:26;3.33;;;2.90;;
24008;SDS011;12217;50.792;4.372;2023-02-28T13:48:52;4.10;;;3.40;;
24008;SDS011;12217;50.792;4.372;2023-02-28T13:51:37;4.30;;;3.05;;
24008;SDS011;12217;50.792;4.372;2023-02-28T14:05:33;3.20;;;2.90;;
24008;SDS011;12217;50.792;4.372;2023-02-28T14:08:04;3.30;;;2.85;;
24008;SDS011;12217;50.792;4.372;2023-02-28T14:16:00;9.05;;;6.93;;
24008;SDS011;12217;50.792;4.372;2023-02-28T14:18:35;7.68;;;5.05;;
24008;SDS011;12217;50.792;4.372;2023-02-28T14:37:41;5.00;;;4.13;;
24008;SDS011;12217;50.792;4.372;2023-02-28T14:40:12;4.80;;;3.55;;
24008;SDS011;12217;50.792;4.372;2023-02-28T14:42:46;3.45;;;3.10;;
24008;SDS011;12217;50.792;4.372;2023-02-28T14:45:17;5.10;;;3.58;;
24008;SDS011;12217;50.792;4.372;2023-02-28T14:47:45;3.58;;;2.90;;
24008;SDS011;12217;50.792;4.372;2023-02-28T14:53:15;3.35;;;3.05;;
24008;SDS011;12217;50.792;4.372;2023-02-28T14:55:45;3.90;;;3.40;;
24008;SDS011;12217;50.792;4.372;2023-02-28T14:58:19;4.97;;;3.10;;
24008;SDS011;12217;50.792;4.372;2023-02-28T15:00:53;5.53;;;3.25;;
24008;SDS011;12217;50.792;4.372;2023-02-28T15:05:58;4.13;;;2.83;;
24008;SDS011;12217;50.792;4.372;2023-02-28T15:08:32;3.85;;;3.45;;
24008;SDS011;12217;50.792;4.372;2023-02-28T15:13:46;4.32;;;3.33;;
24008;SDS011;12217;50.792;4.372;2023-02-28T15:16:17;5.90;;;3.65;;
24008;SDS011;12217;50.792;4.372;2023-02-28T15:18:53;5.57;;;3.38;;
24008;SDS011;12217;50.792;4.372;2023-02-28T15:21:22;5.28;;;3.33;;
24008;SDS011;12217;50.792;4.372;2023-02-28T15:26:46;3.30;;;3.10;;
24008;SDS011;12217;50.792;4.372;2023-02-28T15:29:20;5.68;;;5.07;;
24008;SDS011;12217;50.792;4.372;2023-02-28T15:31:51;3.70;;;3.40;;
24008;SDS011;12217;50.792;4.372;2023-02-28T15:37:23;3.30;;;3.00;;
24008;SDS011;12217;50.792;4.372;2023-02-28T15:42:23;3.70;;;3.40;;
24008;SDS011;12217;50.792;4.372;2023-02-28T15:44:53;4.05;;;3.70;;
24008;SDS011;12217;50.792;4.372;2023-02-28T15:47:23;3.45;;;3.15;;
24008;SDS011;12217;50.792;4.372;2023-02-28T15:49:51;4.03;;;3.72;;
24008;SDS011;12217;50.792;4.372;2023-02-28T15:52:56;3.40;;;3.13;;
24008;SDS011;12217;50.792;4.372;2023-02-28T15:55:22;3.40;;;3.10;;
24008;SDS011;12217;50.792;4.372;2023-02-28T15:57:53;3.80;;;3.50;;
24008;SDS011;12217;50.792;4.372;2023-02-28T16:00:23;4.03;;;3.60;;
24008;SDS011;12217;50.792;4.372;2023-02-28T16:02:51;5.43;;;3.25;;
24008;SDS011;12217;50.792;4.372;2023-02-28T16:05:24;4.63;;;3.35;;
24008;SDS011;12217;50.792;4.372;2023-02-28T16:08:01;4.13;;;3.30;;
24008;SDS011;12217;50.792;4.372;2023-02-28T16:10:41;4.35;;;3.25;;
24008;SDS011;12217;50.792;4.372;2023-02-28T16:13:08;5.10;;;3.47;;
24008;SDS011;12217;50.792;4.372;2023-02-28T16:18:07;6.05;;;4.90;;
24008;SDS011;12217;50.792;4.372;2023-02-28T16:20:39;12.38;;;11.07;;
24008;SDS011;12217;50.792;4.372;2023-02-28T16:23:04;4.53;;;3.80;;
24008;SDS011;12217;50.792;4.372;2023-02-28T16:25:34;4.78;;;3.70;;
24008;SDS011;12217;50.792;4.372;2023-02-28T16:28:02;5.53;;;3.80;;
24008;SDS011;12217;50.792;4.372;2023-02-28T16:30:28;6.85;;;3.60;;
24008;SDS011;12217;50.792;4.372;2023-02-28T16:32:57;4.13;;;3.50;;
24008;SDS011;12217;50.792;4.372;2023-02-28T16:35:23;4.18;;;3.80;;
24008;SDS011;12217;50.792;4.372;2023-02-28T16:37:53;4.00;;;3.65;;
24008;SDS011;12217;50.792;4.372;2023-02-28T16:40:20;4.28;;;3.97;;
24008;SDS011;12217;50.792;4.372;2023-02-28T16:42:51;6.30;;;4.40;;
24008;SDS011;12217;50.792;4.372;2023-02-28T16:45:23;5.32;;;4.20;;
24008;SDS011;12217;50.792;4.372;2023-02-28T16:47:51;5.43;;;4.15;;
24008;SDS011;12217;50.792;4.372;2023-02-28T16:50:27;5.07;;;4.40;;
24008;SDS011;12217;50.792;4.372;2023-02-28T16:52:55;4.97;;;4.50;;
24008;SDS011;12217;50.792;4.372;2023-02-28T16:55:24;5.15;;;4.20;;
24008;SDS011;12217;50.792;4.372;2023-02-28T16:57:52;4.55;;;4.15;;
24008;SDS011;12217;50.792;4.372;2023-02-28T17:00:19;5.03;;;4.25;;
24008;SDS011;12217;50.792;4.372;2023-02-28T17:02:45;4.80;;;4.03;;
24008;SDS011;12217;50.792;4.372;2023-02-28T17:05:11;6.18;;;4.35;;
24008;SDS011;12217;50.792;4.372;2023-02-28T17:07:37;5.97;;;4.15;;
24008;SDS011;12217;50.792;4.372;2023-02-28T17:10:25;5.25;;;4.75;;
24008;SDS011;12217;50.792;4.372;2023-02-28T17:12:51;5.65;;;4.50;;
24008;SDS011;12217;50.792;4.372;2023-02-28T17:15:18;5.00;;;4.57;;
24008;SDS011;12217;50.792;4.372;2023-02-28T17:17:45;4.55;;;4.10;;
24008;SDS011;12217;50.792;4.372;2023-02-28T17:20:15;5.25;;;4.55;;
24008;SDS011;12217;50.792;4.372;2023-02-28T17:22:46;4.90;;;4.50;;
24008;SDS011;12217;50.792;4.372;2023-02-28T17:25:12;7.18;;;4.80;;
24008;SDS011;12217;50.792;4.372;2023-02-28T17:27:37;4.60;;;4.20;;
24008;SDS011;12217;50.792;4.372;2023-02-28T17:30:09;5.97;;;4.40;;
24008;SDS011;12217;50.792;4.372;2023-02-28T17:32:46;5.43;;;4.45;;
24008;SDS011;12217;50.792;4.372;2023-02-28T17:35:12;7.57;;;5.00;;
24008;SDS011;12217;50.792;4.372;2023-02-28T17:37:38;9.52;;;5.22;;